sensor_id;sensor_type;location;lat;lon;timestamp;pressure;altitude;pressure_sealevel;temperature;humidity
43281;BME280;62175;49.416;8.690;2023-05-23T00:01:10;100316.11;;;21.84;60.98
43281;BME280;62175;49.416;8.690;2023-05-23T00:03:38;100315.63;;;21.82;60.39
43281;BME280;62175;49.416;8.690;2023-05-23T00:06:05;100318.59;;;21.52;60.97
43281;BME280;62175;49.416;8.690;2023-05-23T00:08:34;100320.83;;;21.84;60.63
43281;BME280;62175;49.416;8.690;2023-05-23T00:11:02;100322.80;;;21.43;61.03
43281;BME280;62175;49.416;8.690;2023-05-23T00:13:30;100321.82;;;21.61;60.49
43281;BME280;62175;49.416;8.690;2023-05-23T00:16:00;100320.85;;;22.19;60.38
43281;BME280;62175;49.416;8.690;2023-05-23T00:18:28;100324.90;;;21.59;60.42
43281;BME280;62175;49.416;8.690;2023-05-23T00:20:56;100325.81;;;21.69;60.67
43281;BME280;62175;49.416;8.690;2023-05-23T00:23:24;100328.18;;;21.73;60.57
43281;BME280;62175;49.416;8.690;2023-05-23T00:25:51;100328.91;;;21.82;60.23
43281;BME280;62175;49.416;8.690;2023-05-23T00:28:18;100326.71;;;21.56;60.09
43281;BME280;62175;49.416;8.690;2023-05-23T00:30:46;100325.52;;;21.51;60.38
43281;BME280;62175;49.416;8.690;2023-05-23T00:33:14;100323.36;;;21.55;60.26
43281;BME280;62175;49.416;8.690;2023-05-23T00:35:42;100321.19;;;21.76;60.32
43281;BME280;62175;49.416;8.690;2023-05-23T00:38:10;100321.68;;;21.74;60.48
43281;BME280;62175;49.416;8.690;2023-05-23T00:40:39;100324.63;;;21.64;60.39
43281;BME280;62175;49.416;8.690;2023-05-23T00:43:06;100326.33;;;21.71;60.17
43281;BME280;62175;49.416;8.690;2023-05-23T00:45:34;100322.38;;;21.47;60.35
43281;BME280;62175;49.416;8.690;2023-05-23T00:48:02;100321.83;;;21.50;60.55
43281;BME280;62175;49.416;8.690;2023-05-23T00:50:30;100321.24;;;21.40;60.32
43281;BME280;62175;49.416;8.690;2023-05-23T00:52:59;100319.25;;;21.77;60.40
43281;BME280;62175;49.416;8.690;2023-05-23T00:55:27;100321.45;;;21.84;60.07
43281;BME280;62175;49.416;8.690;2023-05-23T00:57:55;100322.68;;;21.82;60.69
43281;BME280;62175;49.416;8.690;2023-05-23T01:00:24;100325.82;;;21.36;60.10
43281;BME280;62175;49.416;8.690;2023-05-23T01:02:52;100327.67;;;21.35;60.40
43281;BME280;62175;49.416;8.690;2023-05-23T01:05:19;100326.42;;;21.40;60.30
43281;BME280;62175;49.416;8.690;2023-05-23T01:07:47;100327.64;;;21.48;60.09
43281;BME280;62175;49.416;8.690;2023-05-23T01:10:17;100329.05;;;21.31;59.85
43281;BME280;62175;49.416;8.690;2023-05-23T01:12:54;100332.62;;;21.28;60.43
43281;BME280;62175;49.416;8.690;2023-05-23T01:15:29;100330.66;;;21.72;59.97
43281;BME280;62175;49.416;8.690;2023-05-23T01:18:04;100333.81;;;21.38;60.05
43281;BME280;62175;49.416;8.690;2023-05-23T01:20:40;100328.95;;;21.70;60.09
43281;BME280;62175;49.416;8.690;2023-05-23T01:23:27;100327.22;;;21.44;60.20
43281;BME280;62175;49.416;8.690;2023-05-23T01:26:16;100329.14;;;21.19;60.06
43281;BME280;62175;49.416;8.690;2023-05-23T01:28:45;100333.01;;;21.26;59.76
43281;BME280;62175;49.416;8.690;2023-05-23T01:31:15;100334.56;;;21.51;60.28
43281;BME280;62175;49.416;8.690;2023-05-23T01:33:43;100342.28;;;21.72;60.23
43281;BME280;62175;49.416;8.690;2023-05-23T01:36:12;100342.36;;;21.28;60.65
43281;BME280;62175;49.416;8.690;2023-05-23T01:38:42;100343.32;;;21.39;60.30
43281;BME280;62175;49.416;8.690;2023-05-23T01:41:10;100342.48;;;21.19;60.00
43281;BME280;62175;49.416;8.690;2023-05-23T01:43:37;100344.68;;;21.35;60.03
43281;BME280;62175;49.416;8.690;2023-05-23T01:46:05;100347.26;;;21.26;60.66
43281;BME280;62175;49.416;8.690;2023-05-23T01:48:34;100353.11;;;21.51;61.13
43281;BME280;62175;49.416;8.690;2023-05-23T01:51:03;100352.96;;;21.29;60.30
43281;BME280;62175;49.416;8.690;2023-05-23T01:53:30;100355.02;;;21.35;60.26
43281;BME280;62175;49.416;8.690;2023-05-23T01:55:58;100358.77;;;21.55;60.39
43281;BME280;62175;49.416;8.690;2023-05-23T01:58:26;100356.32;;;21.37;60.35
43281;BME280;62175;49.416;8.690;2023-05-23T02:00:55;100357.39;;;21.23;60.76
43281;BME280;62175;49.416;8.690;2023-05-23T02:03:23;100358.81;;;21.31;60.30
43281;BME280;62175;49.416;8.690;2023-05-23T02:05:50;100363.98;;;21.43;60.91
43281;BME280;62175;49.416;8.690;2023-05-23T02:08:17;100365.57;;;21.36;60.19
43281;BME280;62175;49.416;8.690;2023-05-23T02:10:44;100366.67;;;21.40;60.59
43281;BME280;62175;49.416;8.690;2023-05-23T02:13:11;100364.69;;;21.41;60.71
43281;BME280;62175;49.416;8.690;2023-05-23T02:15:38;100367.50;;;21.44;59.85
43281;BME280;62175;49.416;8.690;2023-05-23T02:18:06;100370.01;;;21.32;60.57
43281;BME280;62175;49.416;8.690;2023-05-23T02:20:33;100372.35;;;21.27;60.69
43281;BME280;62175;49.416;8.690;2023-05-23T02:23:01;100369.79;;;21.13;59.94
43281;BME280;62175;49.416;8.690;2023-05-23T02:25:28;100376.91;;;21.13;60.15
43281;BME280;62175;49.416;8.690;2023-05-23T02:27:56;100374.53;;;21.34;61.28
43281;BME280;62175;49.416;8.690;2023-05-23T02:30:23;100377.40;;;21.49;59.75
43281;BME280;62175;49.416;8.690;2023-05-23T02:32:50;100378.68;;;21.24;61.34
43281;BME280;62175;49.416;8.690;2023-05-23T02:35:17;100378.40;;;21.29;60.68
43281;BME280;62175;49.416;8.690;2023-05-23T02:37:45;100378.92;;;21.24;60.87
43281;BME280;62175;49.416;8.690;2023-05-23T02:40:12;100378.48;;;21.21;59.74
43281;BME280;62175;49.416;8.690;2023-05-23T02:42:40;100381.52;;;21.23;60.12
43281;BME280;62175;49.416;8.690;2023-05-23T02:45:08;100386.01;;;21.18;60.35
43281;BME280;62175;49.416;8.690;2023-05-23T02:47:35;100385.25;;;21.35;59.74
43281;BME280;62175;49.416;8.690;2023-05-23T02:50:02;100384.77;;;21.13;60.55
43281;BME280;62175;49.416;8.690;2023-05-23T02:52:32;100386.49;;;21.29;60.23
43281;BME280;62175;49.416;8.690;2023-05-23T02:54:59;100388.00;;;21.35;60.66
43281;BME280;62175;49.416;8.690;2023-05-23T02:57:27;100389.35;;;21.06;60.21
43281;BME280;62175;49.416;8.690;2023-05-23T02:59:54;100387.82;;;21.05;61.32
43281;BME280;62175;49.416;8.690;2023-05-23T03:02:22;100386.04;;;21.11;61.13
43281;BME280;62175;49.416;8.690;2023-05-23T03:04:49;100385.59;;;20.84;59.95
43281;BME280;62175;49.416;8.690;2023-05-23T03:07:18;100386.71;;;20.73;59.82
43281;BME280;62175;49.416;8.690;2023-05-23T03:09:45;100391.04;;;20.77;60.92
43281;BME280;62175;49.416;8.690;2023-05-23T03:12:13;100391.26;;;20.80;60.09
43281;BME280;62175;49.416;8.690;2023-05-23T03:14:40;100393.22;;;21.00;60.80
43281;BME280;62175;49.416;8.690;2023-05-23T03:17:07;100393.96;;;21.23;59.64
43281;BME280;62175;49.416;8.690;2023-05-23T03:19:34;100397.44;;;20.74;59.82
43281;BME280;62175;49.416;8.690;2023-05-23T03:22:01;100400.56;;;20.83;60.07
43281;BME280;62175;49.416;8.690;2023-05-23T03:24:29;100397.74;;;20.67;60.09
43281;BME280;62175;49.416;8.690;2023-05-23T03:26:56;100398.97;;;21.26;60.13
43281;BME280;62175;49.416;8.690;2023-05-23T03:29:24;100397.82;;;20.81;60.47
43281;BME280;62175;49.416;8.690;2023-05-23T03:31:52;100397.28;;;20.86;60.08
43281;BME280;62175;49.416;8.690;2023-05-23T03:34:19;100395.18;;;20.90;59.57
43281;BME280;62175;49.416;8.690;2023-05-23T03:36:47;100392.96;;;21.34;60.29
43281;BME280;62175;49.416;8.690;2023-05-23T03:39:15;100396.58;;;21.29;59.02
43281;BME280;62175;49.416;8.690;2023-05-23T03:41:44;100400.21;;;20.98;59.91
43281;BME280;62175;49.416;8.690;2023-05-23T03:44:11;100401.62;;;21.03;59.10
43281;BME280;62175;49.416;8.690;2023-05-23T03:46:39;100402.84;;;21.08;59.76
43281;BME280;62175;49.416;8.690;2023-05-23T03:49:07;100407.73;;;21.00;58.90
43281;BME280;62175;49.416;8.690;2023-05-23T03:51:35;100409.09;;;20.91;59.92
43281;BME280;62175;49.416;8.690;2023-05-23T03:54:03;100410.53;;;20.79;59.42
43281;BME280;62175;49.416;8.690;2023-05-23T03:56:30;100415.69;;;20.88;60.49
43281;BME280;62175;49.416;8.690;2023-05-23T03:58:57;100417.30;;;20.91;59.33
43281;BME280;62175;49.416;8.690;2023-05-23T04:01:25;100417.18;;;21.02;60.15
43281;BME280;62175;49.416;8.690;2023-05-23T04:03:53;100416.28;;;20.99;59.02
43281;BME280;62175;49.416;8.690;2023-05-23T04:06:20;100416.33;;;20.92;60.54
43281;BME280;62175;49.416;8.690;2023-05-23T04:08:47;100418.95;;;20.95;60.67
43281;BME280;62175;49.416;8.690;2023-05-23T04:11:15;100416.53;;;20.95;59.07
43281;BME280;62175;49.416;8.690;2023-05-23T04:13:42;100418.30;;;21.13;59.26
43281;BME280;62175;49.416;8.690;2023-05-23T04:16:10;100428.66;;;20.45;59.93
43281;BME280;62175;49.416;8.690;2023-05-23T04:18:37;100429.03;;;20.74;60.73
43281;BME280;62175;49.416;8.690;2023-05-23T04:21:04;100429.18;;;21.17;59.51
43281;BME280;62175;49.416;8.690;2023-05-23T04:23:32;100429.35;;;20.75;59.27
43281;BME280;62175;49.416;8.690;2023-05-23T04:25:59;100428.54;;;20.77;61.02
43281;BME280;62175;49.416;8.690;2023-05-23T04:28:27;100429.08;;;20.78;59.48
43281;BME280;62175;49.416;8.690;2023-05-23T04:30:54;100431.73;;;20.83;60.13
43281;BME280;62175;49.416;8.690;2023-05-23T04:33:22;100436.53;;;20.48;59.97
43281;BME280;62175;49.416;8.690;2023-05-23T04:35:50;100436.88;;;20.57;59.85
43281;BME280;62175;49.416;8.690;2023-05-23T04:38:18;100440.48;;;20.84;59.88
43281;BME280;62175;49.416;8.690;2023-05-23T04:40:45;100442.04;;;20.53;59.77
43281;BME280;62175;49.416;8.690;2023-05-23T04:43:12;100445.19;;;20.63;59.17
43281;BME280;62175;49.416;8.690;2023-05-23T04:45:39;100445.87;;;20.96;59.67
43281;BME280;62175;49.416;8.690;2023-05-23T04:48:07;100448.48;;;20.98;59.82
43281;BME280;62175;49.416;8.690;2023-05-23T04:50:35;100450.55;;;20.30;60.39
43281;BME280;62175;49.416;8.690;2023-05-23T04:53:02;100455.53;;;20.05;60.01
43281;BME280;62175;49.416;8.690;2023-05-23T04:55:29;100458.49;;;20.56;59.84
43281;BME280;62175;49.416;8.690;2023-05-23T04:57:56;100459.04;;;20.13;59.61
43281;BME280;62175;49.416;8.690;2023-05-23T05:00:24;100463.12;;;20.26;58.72
43281;BME280;62175;49.416;8.690;2023-05-23T05:02:51;100465.75;;;20.30;59.30
43281;BME280;62175;49.416;8.690;2023-05-23T05:05:19;100465.89;;;20.14;59.26
43281;BME280;62175;49.416;8.690;2023-05-23T05:07:46;100463.12;;;19.99;58.85
43281;BME280;62175;49.416;8.690;2023-05-23T05:10:16;100470.26;;;20.33;57.70
43281;BME280;62175;49.416;8.690;2023-05-23T05:12:45;100474.03;;;20.10;58.29
43281;BME280;62175;49.416;8.690;2023-05-23T05:15:13;100481.07;;;20.27;57.76
43281;BME280;62175;49.416;8.690;2023-05-23T05:17:40;100479.30;;;20.16;60.36
43281;BME280;62175;49.416;8.690;2023-05-23T05:20:09;100485.48;;;20.01;58.00
43281;BME280;62175;49.416;8.690;2023-05-23T05:22:37;100480.24;;;19.90;58.23
43281;BME280;62175;49.416;8.690;2023-05-23T05:25:06;100485.30;;;20.05;58.19
43281;BME280;62175;49.416;8.690;2023-05-23T05:27:33;100490.81;;;20.10;57.78
43281;BME280;62175;49.416;8.690;2023-05-23T05:30:00;100489.78;;;20.07;57.84
43281;BME280;62175;49.416;8.690;2023-05-23T05:32:28;100495.58;;;19.89;58.09
43281;BME280;62175;49.416;8.690;2023-05-23T05:34:55;100504.74;;;19.60;59.23
43281;BME280;62175;49.416;8.690;2023-05-23T05:37:23;100507.54;;;19.84;58.47
43281;BME280;62175;49.416;8.690;2023-05-23T05:39:50;100506.26;;;20.05;57.65
43281;BME280;62175;49.416;8.690;2023-05-23T05:42:19;100510.72;;;20.23;57.42
43281;BME280;62175;49.416;8.690;2023-05-23T05:44:48;100513.88;;;19.96;57.56
43281;BME280;62175;49.416;8.690;2023-05-23T05:47:15;100515.03;;;20.41;56.78
43281;BME280;62175;49.416;8.690;2023-05-23T05:49:43;100518.21;;;20.15;57.15
43281;BME280;62175;49.416;8.690;2023-05-23T05:52:10;100518.43;;;20.03;57.49
43281;BME280;62175;49.416;8.690;2023-05-23T05:54:37;100518.09;;;20.10;57.72
43281;BME280;62175;49.416;8.690;2023-05-23T05:57:05;100524.39;;;20.21;58.09
43281;BME280;62175;49.416;8.690;2023-05-23T05:59:33;100529.79;;;19.72;57.08
43281;BME280;62175;49.416;8.690;2023-05-23T06:02:02;100533.21;;;19.94;57.06
43281;BME280;62175;49.416;8.690;2023-05-23T06:04:31;100530.24;;;20.20;58.04
43281;BME280;62175;49.416;8.690;2023-05-23T06:06:58;100533.52;;;20.08;56.74
43281;BME280;62175;49.416;8.690;2023-05-23T06:09:26;100541.03;;;19.90;56.99
43281;BME280;62175;49.416;8.690;2023-05-23T06:11:53;100539.86;;;20.04;56.02
43281;BME280;62175;49.416;8.690;2023-05-23T06:14:22;100539.92;;;19.80;56.94
43281;BME280;62175;49.416;8.690;2023-05-23T06:16:50;100539.66;;;20.16;59.23
43281;BME280;62175;49.416;8.690;2023-05-23T06:19:17;100541.87;;;20.01;57.60
43281;BME280;62175;49.416;8.690;2023-05-23T06:21:45;100544.48;;;19.74;59.13
43281;BME280;62175;49.416;8.690;2023-05-23T06:24:14;100545.04;;;19.96;56.69
43281;BME280;62175;49.416;8.690;2023-05-23T06:26:42;100544.46;;;19.92;58.17
43281;BME280;62175;49.416;8.690;2023-05-23T06:29:10;100546.54;;;20.07;56.62
43281;BME280;62175;49.416;8.690;2023-05-23T06:31:38;100542.82;;;20.19;56.03
43281;BME280;62175;49.416;8.690;2023-05-23T06:34:05;100542.10;;;20.10;55.57
43281;BME280;62175;49.416;8.690;2023-05-23T06:36:33;100546.24;;;20.20;56.94
43281;BME280;62175;49.416;8.690;2023-05-23T06:39:01;100550.78;;;20.12;57.34
43281;BME280;62175;49.416;8.690;2023-05-23T06:41:27;100553.54;;;19.63;56.05
43281;BME280;62175;49.416;8.690;2023-05-23T06:43:57;100551.96;;;19.85;55.45
43281;BME280;62175;49.416;8.690;2023-05-23T06:46:25;100562.66;;;19.83;58.54
43281;BME280;62175;49.416;8.690;2023-05-23T06:48:52;100566.66;;;19.59;55.49
43281;BME280;62175;49.416;8.690;2023-05-23T06:51:19;100575.33;;;20.15;56.32
43281;BME280;62175;49.416;8.690;2023-05-23T06:53:47;100578.65;;;19.51;56.97
43281;BME280;62175;49.416;8.690;2023-05-23T06:56:14;100583.32;;;20.28;56.22
43281;BME280;62175;49.416;8.690;2023-05-23T06:58:41;100578.14;;;19.76;55.23
43281;BME280;62175;49.416;8.690;2023-05-23T07:01:09;100583.61;;;19.90;55.00
43281;BME280;62175;49.416;8.690;2023-05-23T07:03:36;100588.19;;;19.53;55.38
43281;BME280;62175;49.416;8.690;2023-05-23T07:06:03;100586.17;;;19.93;58.79
43281;BME280;62175;49.416;8.690;2023-05-23T07:08:31;100603.42;;;19.75;55.92
43281;BME280;62175;49.416;8.690;2023-05-23T07:10:58;100599.25;;;20.01;55.13
43281;BME280;62175;49.416;8.690;2023-05-23T07:13:25;100590.40;;;20.01;53.97
43281;BME280;62175;49.416;8.690;2023-05-23T07:15:56;100595.43;;;20.07;54.17
43281;BME280;62175;49.416;8.690;2023-05-23T07:18:24;100594.54;;;20.16;53.65
43281;BME280;62175;49.416;8.690;2023-05-23T07:20:51;100600.53;;;20.38;54.06
43281;BME280;62175;49.416;8.690;2023-05-23T07:23:21;100597.12;;;20.02;53.60
43281;BME280;62175;49.416;8.690;2023-05-23T07:25:52;100604.71;;;19.96;54.18
43281;BME280;62175;49.416;8.690;2023-05-23T07:28:19;100594.28;;;19.97;52.31
43281;BME280;62175;49.416;8.690;2023-05-23T07:30:46;100610.02;;;20.51;51.69
43281;BME280;62175;49.416;8.690;2023-05-23T07:33:13;100596.34;;;20.41;51.40
43281;BME280;62175;49.416;8.690;2023-05-23T07:35:42;100605.27;;;19.95;53.72
43281;BME280;62175;49.416;8.690;2023-05-23T07:38:09;100603.13;;;20.27;53.40
43281;BME280;62175;49.416;8.690;2023-05-23T07:40:36;100599.42;;;19.96;53.92
43281;BME280;62175;49.416;8.690;2023-05-23T07:43:08;100605.68;;;20.42;51.98
43281;BME280;62175;49.416;8.690;2023-05-23T07:45:37;100600.60;;;20.45;51.70
43281;BME280;62175;49.416;8.690;2023-05-23T07:48:31;100603.85;;;19.91;51.35
43281;BME280;62175;49.416;8.690;2023-05-23T07:50:59;100597.21;;;20.60;52.37
43281;BME280;62175;49.416;8.690;2023-05-23T07:53:27;100603.18;;;20.31;57.45
43281;BME280;62175;49.416;8.690;2023-05-23T07:56:03;100600.93;;;20.00;51.09
43281;BME280;62175;49.416;8.690;2023-05-23T07:58:30;100602.57;;;20.53;50.57
43281;BME280;62175;49.416;8.690;2023-05-23T08:00:59;100610.85;;;19.86;52.46
43281;BME280;62175;49.416;8.690;2023-05-23T08:03:26;100611.37;;;19.98;51.11
43281;BME280;62175;49.416;8.690;2023-05-23T08:05:54;100622.17;;;20.31;52.28
43281;BME280;62175;49.416;8.690;2023-05-23T08:08:21;100615.78;;;20.24;52.00
43281;BME280;62175;49.416;8.690;2023-05-23T08:10:48;100619.99;;;20.63;51.20
43281;BME280;62175;49.416;8.690;2023-05-23T08:13:16;100623.90;;;20.38;50.81
43281;BME280;62175;49.416;8.690;2023-05-23T08:15:43;100620.78;;;20.68;50.36
43281;BME280;62175;49.416;8.690;2023-05-23T08:18:11;100619.85;;;20.63;51.49
43281;BME280;62175;49.416;8.690;2023-05-23T08:20:39;100620.93;;;20.28;54.10
43281;BME280;62175;49.416;8.690;2023-05-23T08:23:06;100622.95;;;20.57;53.04
43281;BME280;62175;49.416;8.690;2023-05-23T08:25:34;100627.72;;;20.55;50.55
43281;BME280;62175;49.416;8.690;2023-05-23T08:28:01;100621.84;;;20.41;51.87
43281;BME280;62175;49.416;8.690;2023-05-23T08:30:31;100623.14;;;20.37;49.93
43281;BME280;62175;49.416;8.690;2023-05-23T08:32:59;100629.83;;;20.10;50.41
43281;BME280;62175;49.416;8.690;2023-05-23T08:35:27;100625.38;;;20.32;51.41
43281;BME280;62175;49.416;8.690;2023-05-23T08:37:55;100627.01;;;20.25;50.04
43281;BME280;62175;49.416;8.690;2023-05-23T08:40:24;100634.17;;;20.57;51.38
43281;BME280;62175;49.416;8.690;2023-05-23T08:48:55;100637.29;;;20.22;51.47
43281;BME280;62175;49.416;8.690;2023-05-23T08:51:26;100631.47;;;20.15;49.16
43281;BME280;62175;49.416;8.690;2023-05-23T08:53:56;100637.35;;;20.49;49.55
43281;BME280;62175;49.416;8.690;2023-05-23T08:56:32;100636.78;;;20.70;48.37
43281;BME280;62175;49.416;8.690;2023-05-23T08:59:03;100635.45;;;20.51;49.98
43281;BME280;62175;49.416;8.690;2023-05-23T09:02:45;100633.93;;;21.02;48.89
43281;BME280;62175;49.416;8.690;2023-05-23T09:05:15;100640.64;;;20.30;48.52
43281;BME280;62175;49.416;8.690;2023-05-23T09:07:43;100640.65;;;20.73;48.17
43281;BME280;62175;49.416;8.690;2023-05-23T09:10:14;100642.51;;;20.65;48.48
43281;BME280;62175;49.416;8.690;2023-05-23T09:12:44;100637.88;;;20.61;50.78
43281;BME280;62175;49.416;8.690;2023-05-23T09:15:13;100636.78;;;20.59;50.46
43281;BME280;62175;49.416;8.690;2023-05-23T09:17:47;100635.60;;;20.65;49.02
43281;BME280;62175;49.416;8.690;2023-05-23T09:20:17;100638.11;;;20.68;50.13
43281;BME280;62175;49.416;8.690;2023-05-23T09:22:46;100637.47;;;20.63;47.74
43281;BME280;62175;49.416;8.690;2023-05-23T09:25:13;100638.39;;;20.71;49.05
43281;BME280;62175;49.416;8.690;2023-05-23T09:27:42;100634.52;;;20.40;47.65
43281;BME280;62175;49.416;8.690;2023-05-23T09:30:11;100630.36;;;20.51;48.10
43281;BME280;62175;49.416;8.690;2023-05-23T09:32:40;100645.08;;;20.44;47.86
43281;BME280;62175;49.416;8.690;2023-05-23T09:35:07;100642.80;;;20.66;51.24
43281;BME280;62175;49.416;8.690;2023-05-23T09:37:37;100636.96;;;21.03;47.97
43281;BME280;62175;49.416;8.690;2023-05-23T09:40:11;100631.90;;;20.66;47.72
43281;BME280;62175;49.416;8.690;2023-05-23T09:42:42;100631.85;;;21.06;47.35
43281;BME280;62175;49.416;8.690;2023-05-23T09:45:11;100635.94;;;20.56;48.99
43281;BME280;62175;49.416;8.690;2023-05-23T09:47:56;100630.99;;;20.69;48.49
43281;BME280;62175;49.416;8.690;2023-05-23T09:50:25;100632.45;;;20.47;47.96
43281;BME280;62175;49.416;8.690;2023-05-23T09:52:57;100629.71;;;20.69;47.21
43281;BME280;62175;49.416;8.690;2023-05-23T09:55:26;100631.24;;;20.98;47.79
43281;BME280;62175;49.416;8.690;2023-05-23T09:57:54;100633.57;;;20.75;47.71
43281;BME280;62175;49.416;8.690;2023-05-23T10:00:26;100635.11;;;21.14;47.44
43281;BME280;62175;49.416;8.690;2023-05-23T10:02:57;100636.08;;;21.01;47.23
43281;BME280;62175;49.416;8.690;2023-05-23T10:05:35;100643.67;;;20.98;47.19
43281;BME280;62175;49.416;8.690;2023-05-23T10:08:08;100637.12;;;20.82;47.97
43281;BME280;62175;49.416;8.690;2023-05-23T10:13:14;100637.13;;;21.06;48.37
43281;BME280;62175;49.416;8.690;2023-05-23T10:15:45;100639.23;;;20.54;47.91
43281;BME280;62175;49.416;8.690;2023-05-23T10:18:17;100639.78;;;21.04;47.51
43281;BME280;62175;49.416;8.690;2023-05-23T10:20:49;100638.16;;;20.78;47.85
43281;BME280;62175;49.416;8.690;2023-05-23T10:23:20;100638.39;;;20.83;47.77
43281;BME280;62175;49.416;8.690;2023-05-23T10:25:49;100642.37;;;20.91;48.72
43281;BME280;62175;49.416;8.690;2023-05-23T10:28:20;100643.96;;;21.15;48.06
43281;BME280;62175;49.416;8.690;2023-05-23T10:30:50;100646.80;;;21.21;48.10
43281;BME280;62175;49.416;8.690;2023-05-23T10:33:18;100644.45;;;21.03;48.98
43281;BME280;62175;49.416;8.690;2023-05-23T10:35:52;100651.15;;;20.68;48.56
43281;BME280;62175;49.416;8.690;2023-05-23T10:38:30;100650.39;;;20.84;48.61
43281;BME280;62175;49.416;8.690;2023-05-23T10:41:09;100648.85;;;20.82;49.42
43281;BME280;62175;49.416;8.690;2023-05-23T10:43:47;100646.16;;;20.92;49.85
43281;BME280;62175;49.416;8.690;2023-05-23T10:46:23;100648.91;;;20.73;48.06
43281;BME280;62175;49.416;8.690;2023-05-23T10:49:16;100658.21;;;20.68;48.68
43281;BME280;62175;49.416;8.690;2023-05-23T10:51:49;100656.24;;;20.96;49.68
43281;BME280;62175;49.416;8.690;2023-05-23T10:54:36;100658.86;;;20.67;49.01
43281;BME280;62175;49.416;8.690;2023-05-23T10:57:18;100660.02;;;20.71;49.18
43281;BME280;62175;49.416;8.690;2023-05-23T10:59:47;100659.75;;;21.24;48.22
43281;BME280;62175;49.416;8.690;2023-05-23T11:02:21;100656.52;;;21.08;48.61
43281;BME280;62175;49.416;8.690;2023-05-23T11:05:18;100661.89;;;20.78;49.28
43281;BME280;62175;49.416;8.690;2023-05-23T11:07:45;100662.44;;;20.70;48.76
43281;BME280;62175;49.416;8.690;2023-05-23T11:10:13;100663.00;;;20.59;50.07
43281;BME280;62175;49.416;8.690;2023-05-23T11:12:41;100660.24;;;20.50;49.05
43281;BME280;62175;49.416;8.690;2023-05-23T11:15:24;100659.18;;;20.72;48.39
43281;BME280;62175;49.416;8.690;2023-05-23T11:17:52;100666.30;;;20.86;48.80
43281;BME280;62175;49.416;8.690;2023-05-23T11:20:20;100662.44;;;20.79;48.61
43281;BME280;62175;49.416;8.690;2023-05-23T11:22:59;100657.93;;;21.29;48.09
43281;BME280;62175;49.416;8.690;2023-05-23T11:25:40;100666.46;;;20.55;48.84
43281;BME280;62175;49.416;8.690;2023-05-23T11:28:07;100663.81;;;21.25;51.79
43281;BME280;62175;49.416;8.690;2023-05-23T11:30:35;100669.10;;;20.70;48.62
43281;BME280;62175;49.416;8.690;2023-05-23T11:33:08;100665.81;;;21.03;49.16
43281;BME280;62175;49.416;8.690;2023-05-23T11:35:35;100670.30;;;20.63;49.58
43281;BME280;62175;49.416;8.690;2023-05-23T11:38:03;100670.18;;;20.72;49.17
43281;BME280;62175;49.416;8.690;2023-05-23T11:40:32;100671.82;;;21.22;49.11
43281;BME280;62175;49.416;8.690;2023-05-23T11:43:00;100669.10;;;20.69;48.91
43281;BME280;62175;49.416;8.690;2023-05-23T11:45:29;100677.41;;;20.92;50.65
43281;BME280;62175;49.416;8.690;2023-05-23T11:47:57;100675.62;;;20.53;48.90
43281;BME280;62175;49.416;8.690;2023-05-23T11:50:25;100677.61;;;20.89;49.86
43281;BME280;62175;49.416;8.690;2023-05-23T11:52:55;100674.34;;;21.12;50.50
43281;BME280;62175;49.416;8.690;2023-05-23T11:55:23;100670.48;;;20.74;49.40
43281;BME280;62175;49.416;8.690;2023-05-23T11:57:55;100672.57;;;20.95;48.33
43281;BME280;62175;49.416;8.690;2023-05-23T12:00:22;100667.29;;;20.91;48.34
43281;BME280;62175;49.416;8.690;2023-05-23T12:02:57;100658.40;;;20.90;48.16
43281;BME280;62175;49.416;8.690;2023-05-23T12:05:28;100652.67;;;20.83;48.72
43281;BME280;62175;49.416;8.690;2023-05-23T12:07:55;100655.54;;;20.74;48.02
43281;BME280;62175;49.416;8.690;2023-05-23T12:10:31;100651.39;;;20.89;49.98
43281;BME280;62175;49.416;8.690;2023-05-23T12:13:00;100647.59;;;20.91;47.64
43281;BME280;62175;49.416;8.690;2023-05-23T12:15:29;100643.04;;;20.91;47.37
43281;BME280;62175;49.416;8.690;2023-05-23T12:17:57;100646.31;;;21.26;47.81
43281;BME280;62175;49.416;8.690;2023-05-23T12:20:27;100644.53;;;21.10;47.17
43281;BME280;62175;49.416;8.690;2023-05-23T12:22:57;100641.24;;;21.13;47.14
43281;BME280;62175;49.416;8.690;2023-05-23T12:25:27;100646.12;;;21.13;46.90
43281;BME280;62175;49.416;8.690;2023-05-23T22:02:55;100927.08;;;17.92;41.87
43281;BME280;62175;49.416;8.690;2023-05-23T22:05:22;100929.81;;;18.97;42.16
43281;BME280;62175;49.416;8.690;2023-05-23T22:07:49;100934.16;;;18.75;42.02
43281;BME280;62175;49.416;8.690;2023-05-23T22:10:16;100933.74;;;18.95;41.22
43281;BME280;62175;49.416;8.690;2023-05-23T22:12:43;100934.11;;;18.73;41.71
43281;BME280;62175;49.416;8.690;2023-05-23T22:15:10;100930.96;;;18.79;41.55
43281;BME280;62175;49.416;8.690;2023-05-23T22:17:37;100931.78;;;18.53;41.74
43281;BME280;62175;49.416;8.690;2023-05-23T22:20:05;100934.32;;;18.27;41.70
43281;BME280;62175;49.416;8.690;2023-05-23T22:22:33;100935.85;;;18.22;41.71
43281;BME280;62175;49.416;8.690;2023-05-23T22:25:00;100935.77;;;18.50;42.41
43281;BME280;62175;49.416;8.690;2023-05-23T22:27:27;100935.65;;;18.32;42.42
43281;BME280;62175;49.416;8.690;2023-05-23T22:29:54;100934.71;;;18.31;43.31
43281;BME280;62175;49.416;8.690;2023-05-23T22:32:21;100931.64;;;18.49;42.30
43281;BME280;62175;49.416;8.690;2023-05-23T22:34:48;100934.00;;;18.51;42.84
43281;BME280;62175;49.416;8.690;2023-05-23T22:37:15;100939.37;;;18.46;42.89
43281;BME280;62175;49.416;8.690;2023-05-23T22:39:43;100946.60;;;18.17;42.65
43281;BME280;62175;49.416;8.690;2023-05-23T22:42:10;100945.32;;;18.46;42.82
43281;BME280;62175;49.416;8.690;2023-05-23T22:44:37;100946.88;;;18.35;43.03